Time;durP1;ratioP1;P1;durP2;ratioP2;P2;SDS_P1;SDS_P2;PMS_P1;PMS_P2;Temp;Humidity;BMP_temperature;BMP_pressure;BME280_temperature;BME280_humidity;BME280_pressure;Samples;Min_cycle;Max_cycle;Signal;HPM_P1;HPM_P2
2022/10/10 00:00:23;;;;;;;3.17;1.40;;;;;;;7.01;100.00;98666.75;15286422;19;20102;-76
2022/10/10 00:05:49;;;;;;;3.00;1.30;;;;;;;6.95;100.00;98661.94;15298065;19;20486;-76
2022/10/10 00:11:16;;;;;;;2.70;1.10;;;;;;;6.89;100.00;98652.63;15318618;19;20017;-75
2022/10/10 00:16:41;;;;;;;2.25;1.25;;;;;;;6.87;100.00;98649.22;15314140;19;20025;-76
2022/10/10 00:22:06;;;;;;;2.55;1.30;;;;;;;6.94;100.00;98646.84;15299250;19;20016;-76
2022/10/10 00:27:38;;;;;;;3.42;1.23;;;;;;;6.90;100.00;98637.38;15332253;19;20484;-74
2022/10/10 00:33:03;;;;;;;3.72;1.40;;;;;;;7.01;100.00;98623.91;15297224;19;20021;-77
2022/10/10 00:38:35;;;;;;;2.25;1.20;;;;;;;7.07;100.00;98623.38;15283521;19;20030;-76
2022/10/10 00:44:09;;;;;;;2.20;1.40;;;;;;;6.92;100.00;98614.88;15284289;19;20002;-77
2022/10/10 00:49:37;;;;;;;2.08;1.30;;;;;;;6.99;100.00;98615.19;15278303;19;20018;-77
2022/10/10 00:55:01;;;;;;;3.28;1.25;;;;;;;7.10;100.00;98611.53;15284584;19;20021;-77
2022/10/10 01:00:29;;;;;;;2.42;1.40;;;;;;;6.98;100.00;98602.75;15282220;19;20080;-77
2022/10/10 01:05:54;;;;;;;4.05;1.30;;;;;;;6.81;100.00;98598.00;15284649;19;20354;-77
2022/10/10 01:11:37;;;;;;;3.30;1.40;;;;;;;6.84;100.00;98597.75;15281517;19;20022;-77
2022/10/10 01:17:08;;;;;;;;;;;;;;;6.97;100.00;98601.06;15283995;19;20380;-77
2022/10/10 01:22:41;;;;;;;3.70;1.30;;;;;;;7.11;100.00;98586.44;15274383;19;19919;-77
2022/10/10 01:28:20;;;;;;;3.30;1.35;;;;;;;7.35;100.00;98585.25;15278435;19;20449;-75
2022/10/10 01:33:52;;;;;;;3.05;1.10;;;;;;;7.47;100.00;98572.56;15274385;19;20058;-75
2022/10/10 01:39:25;;;;;;;2.00;1.10;;;;;;;7.66;100.00;98575.31;15278450;19;20039;-75
2022/10/10 01:44:55;;;;;;;2.42;1.02;;;;;;;7.74;100.00;98581.81;15278509;19;20101;-75
2022/10/10 01:50:23;;;;;;;3.83;1.30;;;;;;;7.81;100.00;98572.22;15276977;19;20015;-75
2022/10/10 01:56:04;;;;;;;2.63;1.20;;;;;;;7.81;100.00;98566.88;15271414;19;20081;-75
2022/10/10 02:01:38;;;;;;;1.73;1.13;;;;;;;7.88;100.00;98557.25;15271484;19;20010;-74
2022/10/10 02:07:08;;;;;;;2.08;1.20;;;;;;;7.92;100.00;98547.97;15270109;19;20022;-75
2022/10/10 02:12:33;;;;;;;2.22;1.17;;;;;;;7.93;100.00;98549.66;15275995;19;20023;-75
2022/10/10 02:18:04;;;;;;;2.67;1.15;;;;;;;7.95;100.00;98536.09;15273553;19;20080;-75
2022/10/10 02:23:29;;;;;;;2.42;1.20;;;;;;;7.96;100.00;98527.88;15273282;19;20388;-76
2022/10/10 02:29:01;;;;;;;2.10;1.10;;;;;;;8.00;100.00;98529.31;15271954;19;20047;-75
2022/10/10 02:34:33;;;;;;;3.63;1.20;;;;;;;8.03;100.00;98536.22;15281106;19;20019;-75
2022/10/10 02:40:04;;;;;;;2.28;1.10;;;;;;;8.08;100.00;98517.00;15276791;19;20399;-75
2022/10/10 02:45:31;;;;;;;1.48;1.08;;;;;;;8.13;100.00;98512.06;15288995;19;20418;-75
2022/10/10 02:50:59;;;;;;;2.53;1.10;;;;;;;8.19;100.00;98506.09;15284335;19;20031;-75
2022/10/10 02:56:23;;;;;;;1.60;1.08;;;;;;;8.23;100.00;98495.97;15281759;19;20370;-76
2022/10/10 03:01:48;;;;;;;1.23;0.90;;;;;;;8.24;100.00;98497.63;15289869;19;20601;-75
2022/10/10 03:07:16;;;;;;;2.35;0.90;;;;;;;8.25;100.00;98484.06;15291863;19;20618;-76
2022/10/10 03:12:41;;;;;;;2.05;1.10;;;;;;;8.27;100.00;98489.28;15284894;19;20481;-74
2022/10/10 03:18:06;;;;;;;1.40;0.90;;;;;;;8.28;100.00;98473.06;15285648;19;20014;-75
2022/10/10 03:23:34;;;;;;;3.25;1.23;;;;;;;8.29;100.00;98479.25;15288901;19;20011;-76
2022/10/10 03:28:58;;;;;;;1.73;1.00;;;;;;;8.30;100.00;98471.03;15282511;19;20019;-76
2022/10/10 03:34:23;;;;;;;2.13;1.13;;;;;;;8.29;100.00;98465.84;15296952;19;20011;-75
2022/10/10 03:39:50;;;;;;;1.48;0.90;;;;;;;8.24;100.00;98460.03;15300048;19;20017;-74
2022/10/10 03:45:17;;;;;;;3.25;1.10;;;;;;;8.17;100.00;98457.97;15324257;19;20465;-74
2022/10/10 03:50:41;;;;;;;2.42;1.02;;;;;;;8.12;100.00;98454.00;15285601;19;20015;-75
2022/10/10 03:56:17;;;;;;;2.33;1.00;;;;;;;8.07;100.00;98451.78;15288746;19;20435;-75
2022/10/10 04:01:44;;;;;;;1.98;1.20;;;;;;;8.03;100.00;98453.03;15286795;19;20020;-75
2022/10/10 04:07:08;;;;;;;2.38;1.10;;;;;;;8.00;100.00;98447.94;15284265;19;20028;-75
2022/10/10 04:12:35;;;;;;;3.58;1.38;;;;;;;7.97;100.00;98443.72;15282129;19;20018;-75
2022/10/10 04:18:01;;;;;;;3.25;1.20;;;;;;;7.95;100.00;98439.50;15277886;19;20025;-75
2022/10/10 04:23:26;;;;;;;1.83;1.10;;;;;;;7.92;100.00;98434.41;15284905;19;20086;-76
2022/10/10 04:28:54;;;;;;;1.83;1.20;;;;;;;7.93;100.00;98436.97;15280838;19;20010;-76
2022/10/10 04:34:19;;;;;;;2.33;1.23;;;;;;;7.96;100.00;98427.78;15270372;19;20460;-74
2022/10/10 04:39:44;;;;;;;2.00;1.10;;;;;;;7.99;100.00;98425.66;15275232;19;20022;-76
2022/10/10 04:45:12;;;;;;;3.58;1.20;;;;;;;8.06;100.00;98425.06;15280953;19;20068;-75
2022/10/10 04:50:37;;;;;;;1.88;1.10;;;;;;;8.10;100.00;98421.09;15273715;19;20019;-75
2022/10/10 04:56:02;;;;;;;3.47;1.33;;;;;;;8.13;100.00;98412.78;15300145;19;20027;-75
2022/10/10 05:01:29;;;;;;;2.13;1.10;;;;;;;8.24;100.00;98409.91;15286860;19;20014;-75
2022/10/10 05:06:53;;;;;;;3.42;1.02;;;;;;;8.21;100.00;98406.69;15274333;19;20010;-75
2022/10/10 05:12:18;;;;;;;3.42;1.20;;;;;;;8.16;100.00;98415.19;15274796;19;20908;-74
2022/10/10 05:17:46;;;;;;;3.67;1.00;;;;;;;8.04;100.00;98416.34;15275010;19;20015;-74
2022/10/10 05:23:11;;;;;;;2.35;1.20;;;;;;;7.91;100.00;98420.19;15275471;19;20023;-75
2022/10/10 05:28:36;;;;;;;2.70;1.20;;;;;;;7.81;100.00;98417.50;15278760;19;20487;-76
2022/10/10 05:34:03;;;;;;;1.80;1.20;;;;;;;7.79;100.00;98421.31;15274762;19;20010;-74
2022/10/10 05:39:34;;;;;;;2.92;1.25;;;;;;;7.75;100.00;98436.00;15269467;19;20011;-75
2022/10/10 05:44:58;;;;;;;1.73;1.20;;;;;;;7.67;100.00;98431.34;15274438;19;20027;-75
2022/10/10 05:50:38;;;;;;;4.93;1.25;;;;;;;7.65;100.00;98434.19;15266663;19;20580;-74
2022/10/10 05:56:03;;;;;;;2.15;1.30;;;;;;;7.67;100.00;98429.53;15274100;19;20010;-75
2022/10/10 06:01:28;;;;;;;3.03;1.40;;;;;;;7.74;100.00;98428.94;15271795;19;20347;-76
2022/10/10 06:06:55;;;;;;;3.28;1.17;;;;;;;7.79;100.00;98430.19;15275262;19;20042;-76
2022/10/10 06:12:20;;;;;;;5.20;1.20;;;;;;;7.82;100.00;98427.25;15284805;19;20016;-76
2022/10/10 06:17:44;;;;;;;4.38;1.10;;;;;;;7.84;100.00;98427.09;15288896;19;20019;-77
2022/10/10 06:23:13;;;;;;;2.80;1.33;;;;;;;7.83;100.00;98422.72;15285052;19;20006;-77
2022/10/10 06:28:37;;;;;;;3.58;1.40;;;;;;;7.82;100.00;98431.78;15287498;19;19999;-77
2022/10/10 06:34:02;;;;;;;1.73;1.15;;;;;;;7.91;100.00;98433.59;15289432;19;20022;-75
2022/10/10 06:39:36;;;;;;;2.90;1.20;;;;;;;7.95;100.00;98443.03;15287259;19;20014;-75
2022/10/10 06:45:02;;;;;;;5.50;1.20;;;;;;;8.00;100.00;98447.94;15283324;19;20010;-76
2022/10/10 06:50:26;;;;;;;1.95;1.10;;;;;;;8.14;100.00;98449.34;15284672;19;20015;-76
2022/10/10 06:55:54;;;;;;;2.00;1.08;;;;;;;8.28;100.00;98448.03;15291613;19;20013;-76
2022/10/10 07:01:20;;;;;;;2.08;1.10;;;;;;;8.40;100.00;98446.03;15338769;19;20030;-75
2022/10/10 07:06:44;;;;;;;3.92;1.50;;;;;;;8.48;100.00;98446.16;15292124;19;20007;-76
2022/10/10 07:12:12;;;;;;;3.75;1.30;;;;;;;8.51;100.00;98451.25;15287229;19;20014;-75
2022/10/10 07:17:36;;;;;;;2.53;1.10;;;;;;;8.54;100.00;98456.31;15283239;19;20011;-77
2022/10/10 07:23:01;;;;;;;2.53;1.20;;;;;;;8.56;100.00;98459.69;15290130;19;20014;-77
2022/10/10 07:28:28;;;;;;;2.97;1.10;;;;;;;8.70;100.00;98461.03;15286239;19;20011;-78
2022/10/10 07:33:55;;;;;;;2.53;1.20;;;;;;;8.82;100.00;98461.72;15289474;19;20014;-77
2022/10/10 07:39:28;;;;;;;2.45;1.30;;;;;;;9.01;100.00;98463.44;15284616;19;20025;-76
2022/10/10 07:44:55;;;;;;;4.97;1.30;;;;;;;9.19;100.00;98460.78;15287349;19;20024;-77
2022/10/10 07:50:23;;;;;;;1.90;1.15;;;;;;;9.32;100.00;98464.94;15275480;19;20070;-77
2022/10/10 07:55:49;;;;;;;2.85;1.08;;;;;;;9.50;100.00;98462.28;15286954;19;20024;-77
2022/10/10 08:01:18;;;;;;;3.00;1.20;;;;;;;9.66;100.00;98446.28;15287888;19;20073;-78
2022/10/10 08:06:43;;;;;;;2.22;1.30;;;;;;;9.87;100.00;98454.00;15294716;19;20011;-78
2022/10/10 08:12:07;;;;;;;2.60;1.30;;;;;;;10.04;100.00;98459.53;15293306;19;20010;-78
2022/10/10 08:17:34;;;;;;;3.08;1.20;;;;;;;10.24;100.00;98443.16;15290568;19;20013;-78
2022/10/10 08:22:59;;;;;;;4.55;1.40;;;;;;;10.47;100.00;98444.34;15283311;19;20022;-79
2022/10/10 08:28:24;;;;;;;6.05;1.30;;;;;;;10.75;100.00;98444.16;15286577;19;20010;-79
2022/10/10 08:33:52;;;;;;;4.35;2.30;;;;;;;10.92;100.00;98439.69;15282695;19;20014;-79
2022/10/10 08:39:24;;;;;;;5.70;2.85;;;;;;;11.19;100.00;98442.28;15283520;19;20022;-79
2022/10/10 08:44:53;;;;;;;2.97;1.50;;;;;;;11.39;100.00;98426.66;15290432;19;20552;-79
2022/10/10 08:50:27;;;;;;;6.22;2.80;;;;;;;11.57;100.00;98416.53;15284571;19;20017;-79
2022/10/10 08:55:54;;;;;;;4.93;2.53;;;;;;;11.85;100.00;98420.75;15284154;19;20401;-79
2022/10/10 09:01:24;;;;;;;3.78;2.30;;;;;;;12.05;100.00;98423.97;15284066;19;20007;-78
2022/10/10 09:07:02;;;;;;;4.80;2.78;;;;;;;12.23;100.00;98417.53;15281770;19;20010;-79
2022/10/10 09:12:35;;;;;;;5.25;2.63;;;;;;;12.37;100.00;98413.28;15291139;19;20034;-78
2022/10/10 09:18:12;;;;;;;4.22;1.98;;;;;;;12.55;100.00;98410.34;15284044;19;20479;-79
2022/10/10 09:23:43;;;;;;;4.53;1.73;;;;;;;12.73;100.00;98407.41;15280672;19;20390;-78
2022/10/10 09:29:23;;;;;;;4.83;1.70;;;;;;;12.91;100.00;98405.28;15289247;19;20031;-78
2022/10/10 09:34:51;;;;;;;3.80;1.40;;;;;;;13.20;100.00;98403.78;15327063;19;20263;-79
2022/10/10 09:40:25;;;;;;;3.30;1.60;;;;;;;13.24;100.00;98407.78;15303731;19;20043;-79
2022/10/10 09:45:57;;;;;;;4.97;2.20;;;;;;;13.44;100.00;98415.50;15294271;19;20049;-81
2022/10/10 09:51:23;;;;;;;3.83;1.90;;;;;;;13.52;100.00;98412.72;15292136;19;20019;-80
2022/10/10 09:56:53;;;;;;;3.40;2.03;;;;;;;13.70;100.00;98387.22;15291146;19;20021;-80
2022/10/10 10:02:21;;;;;;;3.35;1.90;;;;;;;13.91;100.00;98405.47;15287204;19;20007;-78
2022/10/10 10:07:57;;;;;;;4.60;1.85;;;;;;;14.05;100.00;98395.69;15295203;19;20028;-79
2022/10/10 10:13:29;;;;;;;5.45;3.55;;;;;;;14.16;100.00;98395.25;15295653;19;20019;-79
2022/10/10 10:18:56;;;;;;;4.28;1.98;;;;;;;14.35;100.00;98411.97;15301350;19;20489;-79
2022/10/10 10:24:23;;;;;;;3.97;1.70;;;;;;;14.47;100.00;98394.22;15304845;19;20048;-79
2022/10/10 10:29:55;;;;;;;4.43;1.80;;;;;;;14.49;100.00;98391.31;15320435;19;20019;-79
2022/10/10 10:35:29;;;;;;;3.35;1.52;;;;;;;14.73;100.00;98392.94;15318025;19;20727;-81
2022/10/10 10:41:04;;;;;;;2.50;1.40;;;;;;;14.80;100.00;98384.88;15274133;19;20018;-79
2022/10/10 10:46:45;;;;;;;2.00;1.30;;;;;;;14.91;100.00;98381.69;15285001;19;20022;-78
2022/10/10 10:52:36;;;;;;;3.20;1.50;;;;;;;15.09;100.00;98374.97;15291789;19;20017;-81
2022/10/10 10:58:23;;;;;;;2.58;1.30;;;;;;;15.15;100.00;98374.22;15301697;19;20091;-80
2022/10/10 11:04:13;;;;;;;2.50;1.45;;;;;;;15.29;100.00;98377.91;15305030;19;20053;-81
2022/10/10 11:10:04;;;;;;;2.40;1.27;;;;;;;15.41;100.00;98384.53;15304340;19;20068;-80
2022/10/10 11:15:34;;;;;;;1.98;1.20;;;;;;;15.61;100.00;98381.16;15297336;19;20027;-80
2022/10/10 11:21:19;;;;;;;2.38;1.20;;;;;;;15.66;100.00;98377.84;15291351;19;20033;-80
2022/10/10 11:26:48;;;;;;;3.03;1.42;;;;;;;15.74;100.00;98374.16;15301618;19;20018;-80
2022/10/10 11:32:19;;;;;;;2.53;1.27;;;;;;;15.96;100.00;98369.56;15302092;19;20022;-79
2022/10/10 11:37:52;;;;;;;3.83;1.20;;;;;;;16.04;100.00;98374.84;15293228;19;20404;-80
2022/10/10 11:43:23;;;;;;;3.40;1.35;;;;;;;16.21;100.00;98374.56;15294096;19;20022;-80
2022/10/10 11:48:56;;;;;;;1.83;1.10;;;;;;;16.42;100.00;98365.47;15292389;19;20026;-84
2022/10/10 11:54:35;;;;;;;2.45;1.30;;;;;;;16.56;100.00;98367.22;15297342;19;20090;-80
2022/10/10 12:00:06;;;;;;;3.40;1.40;;;;;;;16.64;100.00;98361.59;15290517;19;20432;-79
2022/10/10 12:05:37;;;;;;;3.60;1.10;;;;;;;16.94;100.00;98347.75;15290825;19;20074;-80
2022/10/10 12:11:12;;;;;;;1.63;1.20;;;;;;;17.07;100.00;98337.94;15290189;19;20014;-80
2022/10/10 12:16:39;;;;;;;2.53;1.10;;;;;;;17.15;100.00;98332.28;15293101;19;20275;-80
2022/10/10 12:22:07;;;;;;;2.22;1.20;;;;;;;17.32;100.00;98326.47;15290171;19;20006;-80
2022/10/10 12:27:51;;;;;;;2.83;1.10;;;;;;;17.60;100.00;98319.97;15292059;19;20339;-80
2022/10/10 12:33:21;;;;;;;3.15;1.20;;;;;;;17.70;100.00;98321.25;15291639;19;20010;-80
2022/10/10 12:39:35;;;;;;;2.03;1.20;;;;;;;17.90;100.00;98317.66;15288352;19;20018;-79
2022/10/10 12:45:03;;;;;;;2.50;1.10;;;;;;;18.08;100.00;98327.94;15294143;19;20086;-79
2022/10/10 12:50:33;;;;;;;3.40;1.20;;;;;;;18.37;100.00;98324.94;15287398;19;20015;-79
2022/10/10 12:55:59;;;;;;;3.97;0.85;;;;;;;18.46;100.00;98327.22;15300445;19;20521;-78
2022/10/10 13:01:35;;;;;;;2.58;1.10;;;;;;;18.70;100.00;98313.09;15297959;19;20044;-78
2022/10/10 13:07:03;;;;;;;3.08;1.10;;;;;;;18.86;100.00;98309.84;15300630;19;20018;-78
2022/10/10 13:12:33;;;;;;;1.42;0.98;;;;;;;18.82;100.00;98300.41;15287635;19;20018;-79
2022/10/10 13:18:00;;;;;;;1.50;1.05;;;;;;;19.20;100.00;98301.50;15284305;19;20017;-77
2022/10/10 13:23:27;;;;;;;1.63;1.10;;;;;;;19.35;100.00;98304.72;15279141;19;20019;-76
2022/10/10 13:28:55;;;;;;;1.90;1.00;;;;;;;19.61;100.00;98291.94;15285800;19;20014;-76
2022/10/10 13:34:26;;;;;;;3.85;1.50;;;;;;;19.70;100.00;98296.03;15280589;19;20027;-77
2022/10/10 13:39:59;;;;;;;2.25;1.15;;;;;;;19.89;100.00;98304.34;15275074;19;20033;-76
2022/10/10 13:45:34;;;;;;;2.45;1.05;;;;;;;20.17;100.00;98295.63;15275828;19;20502;-77
2022/10/10 13:51:11;;;;;;;2.35;1.50;;;;;;;19.94;100.00;98296.28;15280416;19;20031;-77
2022/10/10 13:56:40;;;;;;;3.90;1.10;;;;;;;20.10;100.00;98297.63;15295797;19;20014;-78
2022/10/10 14:02:09;;;;;;;5.03;1.20;;;;;;;20.04;100.00;98303.97;15294998;19;20024;-78
2022/10/10 14:07:39;;;;;;;2.65;1.10;;;;;;;20.21;100.00;98300.66;15297058;19;20007;-77
2022/10/10 14:13:07;;;;;;;3.17;1.00;;;;;;;20.51;100.00;98308.97;15293329;19;20011;-77
2022/10/10 14:18:32;;;;;;;3.83;1.33;;;;;;;20.38;100.00;98298.16;15321844;19;20011;-78
2022/10/10 14:24:01;;;;;;;2.83;1.00;;;;;;;20.52;100.00;98304.31;15303873;19;20006;-78
2022/10/10 14:29:31;;;;;;;3.83;1.35;;;;;;;20.51;100.00;98300.75;15332953;19;20019;-81
2022/10/10 14:34:47;;;;;;;2.05;1.00;;;;;;;20.57;100.00;98294.34;15324907;19;20011;-78
2022/10/10 14:40:27;;;;;;;4.05;1.20;;;;;;;20.62;100.00;98293.66;15294328;19;20362;-77
2022/10/10 14:45:54;;;;;;;4.55;1.27;;;;;;;20.46;100.00;98286.91;15299023;19;20627;-78
2022/10/10 14:51:19;;;;;;;3.85;1.20;;;;;;;19.97;100.00;98289.53;15299178;19;20021;-79
2022/10/10 14:56:55;;;;;;;7.18;1.15;;;;;;;20.05;100.00;98296.63;15323775;19;20006;-79
2022/10/10 15:02:28;;;;;;;8.02;1.45;;;;;;;19.92;100.00;98287.50;15308495;19;20014;-79
2022/10/10 15:07:53;;;;;;;5.75;1.55;;;;;;;19.86;100.00;98304.78;15312620;19;20046;-79
2022/10/10 15:13:21;;;;;;;5.85;1.40;;;;;;;19.69;100.00;98304.47;15304304;19;20014;-78
2022/10/10 15:18:46;;;;;;;3.72;1.50;;;;;;;19.57;100.00;98315.31;15293114;19;20011;-79
2022/10/10 15:24:12;;;;;;;6.00;1.58;;;;;;;19.13;100.00;98306.16;15304913;19;20014;-79
2022/10/10 15:29:42;;;;;;;7.00;1.50;;;;;;;18.68;100.00;98315.19;15288788;19;20010;-77
2022/10/10 15:35:06;;;;;;;4.05;1.30;;;;;;;18.44;100.00;98321.16;15296821;19;20118;-78
2022/10/10 15:40:37;;;;;;;4.10;1.42;;;;;;;18.36;100.00;98326.00;15298520;19;20014;-80
2022/10/10 15:46:10;;;;;;;3.08;1.30;;;;;;;18.18;100.00;98328.34;15302722;19;20002;-80
2022/10/10 15:51:35;;;;;;;6.05;1.50;;;;;;;17.86;100.00;98332.78;15292625;19;20093;-80
2022/10/10 15:57:00;;;;;;;6.00;1.27;;;;;;;17.55;100.00;98335.09;15295937;19;20048;-79
2022/10/10 16:02:27;;;;;;;4.50;1.23;;;;;;;17.29;100.00;98345.94;15292405;19;20014;-79
2022/10/10 16:07:54;;;;;;;3.70;1.38;;;;;;;17.12;100.00;98345.47;15296871;19;20084;-80
2022/10/10 16:13:23;;;;;;;3.20;1.27;;;;;;;16.82;100.00;98346.63;15306737;19;20011;-80
2022/10/10 16:18:51;;;;;;;4.10;1.30;;;;;;;16.46;100.00;98347.72;15302406;19;20023;-79
2022/10/10 16:24:17;;;;;;;4.63;1.38;;;;;;;16.24;100.00;98355.97;15287165;19;20355;-80
2022/10/10 16:29:43;;;;;;;3.53;1.40;;;;;;;16.05;100.00;98367.56;15303331;19;20014;-81
2022/10/10 16:35:10;;;;;;;4.72;1.80;;;;;;;15.98;100.00;98372.94;15299963;19;20111;-81
2022/10/10 16:40:45;;;;;;;4.53;1.65;;;;;;;15.88;100.00;98384.13;15296181;19;20029;-84
2022/10/10 16:46:18;;;;;;;4.07;1.50;;;;;;;15.79;100.00;98391.53;15294098;19;20018;-81
2022/10/10 16:51:45;;;;;;;4.07;1.63;;;;;;;15.70;100.00;98387.28;15293612;19;20011;-80
2022/10/10 16:57:10;;;;;;;6.38;2.00;;;;;;;15.62;100.00;98401.84;15286802;19;20025;-80
2022/10/10 17:02:37;;;;;;;4.78;2.00;;;;;;;15.48;100.00;98416.31;15289361;19;20014;-80
2022/10/10 17:08:06;;;;;;;5.38;2.72;;;;;;;15.38;100.00;98422.06;15284198;19;20018;-79
2022/10/10 17:13:32;;;;;;;5.82;2.35;;;;;;;15.26;100.00;98429.88;15285383;19;20016;-79
2022/10/10 17:18:58;;;;;;;6.60;2.60;;;;;;;15.20;100.00;98447.75;15292098;19;20018;-79
2022/10/10 17:24:27;;;;;;;5.43;2.42;;;;;;;15.10;100.00;98445.38;15294940;19;20044;-79
2022/10/10 17:29:53;;;;;;;5.03;2.22;;;;;;;15.02;100.00;98445.44;15288913;19;20498;-80
2022/10/10 17:35:22;;;;;;;6.63;2.25;;;;;;;14.84;100.00;98451.25;15294049;19;20017;-81
2022/10/10 17:41:04;;;;;;;6.28;2.17;;;;;;;14.67;100.00;98457.91;15284327;19;20022;-80
2022/10/10 17:46:31;;;;;;;7.63;2.80;;;;;;;14.60;100.00;98464.03;15287175;19;20091;-79
2022/10/10 17:51:56;;;;;;;6.18;2.35;;;;;;;14.47;100.00;98461.13;15289840;19;20050;-79
2022/10/10 17:57:23;;;;;;;6.47;2.38;;;;;;;14.36;100.00;98462.44;15285729;19;20015;-79
2022/10/10 18:02:49;;;;;;;4.57;1.73;;;;;;;14.26;100.00;98460.00;15287777;19;20478;-79
2022/10/10 18:08:15;;;;;;;4.60;1.70;;;;;;;14.20;100.00;98468.00;15297389;19;20090;-76
2022/10/10 18:13:42;;;;;;;5.43;2.28;;;;;;;14.14;100.00;98469.59;15290685;19;20030;-75
2022/10/10 18:19:09;;;;;;;4.55;1.88;;;;;;;14.08;100.00;98476.59;15290533;19;20034;-76
2022/10/10 18:24:33;;;;;;;4.43;1.77;;;;;;;13.97;100.00;98486.00;15294804;19;20022;-75
2022/10/10 18:30:01;;;;;;;3.80;1.90;;;;;;;13.91;100.00;98483.16;15346607;19;20345;-76
2022/10/10 18:35:27;;;;;;;5.70;2.00;;;;;;;13.77;100.00;98499.19;15280297;19;20014;-76
2022/10/10 18:40:58;;;;;;;7.65;3.30;;;;;;;13.71;100.00;98502.59;15279484;19;20015;-75
2022/10/10 18:46:29;;;;;;;6.10;2.30;;;;;;;13.65;100.00;98500.63;15279804;19;20017;-75
2022/10/10 18:51:55;;;;;;;4.53;2.22;;;;;;;13.58;100.00;98507.78;15285069;19;20014;-75
2022/10/10 18:57:20;;;;;;;4.47;2.40;;;;;;;13.48;100.00;98518.81;15284573;19;20015;-77
2022/10/10 19:02:47;;;;;;;6.00;2.53;;;;;;;13.42;100.00;98520.38;15287587;19;20015;-75
2022/10/10 19:08:13;;;;;;;5.82;2.65;;;;;;;13.34;100.00;98528.50;15280796;19;20089;-76
2022/10/10 19:13:38;;;;;;;5.75;2.42;;;;;;;13.28;100.00;98537.31;15330529;19;20010;-79
2022/10/10 19:19:06;;;;;;;6.13;2.17;;;;;;;13.24;100.00;98534.94;15299908;19;20011;-78
2022/10/10 19:24:30;;;;;;;6.60;2.10;;;;;;;13.18;100.00;98534.81;15304079;19;20044;-77
2022/10/10 19:29:55;;;;;;;5.07;2.20;;;;;;;13.14;100.00;98547.84;15292020;19;20416;-77
2022/10/10 19:35:23;;;;;;;4.82;1.92;;;;;;;13.09;100.00;98558.38;15294270;19;20018;-78
2022/10/10 19:40:56;;;;;;;4.38;2.10;;;;;;;13.04;100.00;98558.88;15289511;19;20030;-77
2022/10/10 19:46:25;;;;;;;5.90;2.00;;;;;;;12.97;100.00;98559.75;15296179;19;20039;-78
2022/10/10 19:51:56;;;;;;;4.72;1.98;;;;;;;12.81;100.00;98571.47;15289368;19;20011;-78
2022/10/10 19:57:21;;;;;;;4.90;2.00;;;;;;;12.67;100.00;98576.53;15291801;19;20533;-79
2022/10/10 20:02:45;;;;;;;3.42;1.90;;;;;;;12.51;100.00;98582.81;14784788;19;10000937;-78
2022/10/10 20:08:13;;;;;;;5.93;2.10;;;;;;;12.45;100.00;98594.28;15298528;19;20010;-78
2022/10/10 20:13:38;;;;;;;7.22;2.20;;;;;;;12.38;100.00;98604.09;15294598;19;20007;-78
2022/10/10 20:19:03;;;;;;;5.75;2.20;;;;;;;12.40;100.00;98612.88;15290892;19;20010;-78
2022/10/10 20:24:30;;;;;;;7.28;2.20;;;;;;;12.39;100.00;98609.31;15289894;19;20025;-79
2022/10/10 20:29:55;;;;;;;7.63;2.28;;;;;;;12.41;100.00;98609.13;15286174;19;20050;-77
2022/10/10 20:35:19;;;;;;;7.32;2.30;;;;;;;12.38;100.00;98614.91;15289023;19;20017;-77
2022/10/10 20:40:53;;;;;;;5.53;2.00;;;;;;;12.35;100.00;98616.06;15283415;19;20351;-78
2022/10/10 20:46:18;;;;;;;4.93;1.95;;;;;;;12.35;100.00;98617.91;15275077;19;20026;-78
2022/10/10 20:51:47;;;;;;;3.88;1.95;;;;;;;12.32;100.00;98628.03;15281978;19;20081;-77
2022/10/10 20:57:15;;;;;;;4.78;2.13;;;;;;;12.32;100.00;98643.44;15278616;19;20054;-77
2022/10/10 21:02:40;;;;;;;4.75;1.73;;;;;;;12.32;100.00;98638.84;15282461;19;20053;-77
2022/10/10 21:08:05;;;;;;;7.60;2.08;;;;;;;12.30;100.00;98638.16;15279213;19;20011;-77
2022/10/10 21:13:33;;;;;;;4.40;1.92;;;;;;;12.29;100.00;98651.84;15279359;19;20355;-77
2022/10/10 21:18:58;;;;;;;7.40;1.95;;;;;;;12.28;100.00;98648.31;15277547;19;20036;-76
2022/10/10 21:24:22;;;;;;;6.53;2.22;;;;;;;12.27;100.00;98660.13;15271590;19;20013;-77
2022/10/10 21:29:50;;;;;;;6.28;2.00;;;;;;;12.28;100.00;98664.53;15275599;19;20563;-77
2022/10/10 21:35:15;;;;;;;7.05;2.00;;;;;;;12.27;100.00;98662.84;15279301;19;20015;-76
2022/10/10 21:40:40;;;;;;;6.13;1.80;;;;;;;12.29;100.00;98674.31;15275866;19;20374;-77
2022/10/10 21:46:12;;;;;;;5.20;2.00;;;;;;;12.29;100.00;98678.88;15286715;19;20556;-77
2022/10/10 21:51:39;;;;;;;5.28;2.00;;;;;;;12.26;100.00;98680.06;15279499;19;20006;-76
2022/10/10 21:57:03;;;;;;;6.35;2.17;;;;;;;12.23;100.00;98677.69;15278542;19;20018;-77
2022/10/10 22:02:31;;;;;;;5.50;2.00;;;;;;;12.29;100.00;98695.91;15301433;19;20074;-77
2022/10/10 22:07:55;;;;;;;6.47;1.70;;;;;;;12.38;100.00;98690.53;15326847;19;20022;-76
2022/10/10 22:13:20;;;;;;;6.57;2.20;;;;;;;12.40;100.00;98710.16;15275803;19;20014;-76
2022/10/10 22:18:49;;;;;;;6.13;1.98;;;;;;;12.49;100.00;98709.97;15268971;19;20082;-77
2022/10/10 22:24:14;;;;;;;7.13;1.95;;;;;;;12.61;100.00;98717.75;15276152;19;20018;-77
2022/10/10 22:29:39;;;;;;;4.25;1.75;;;;;;;12.67;100.00;98724.34;15270165;19;20383;-77
2022/10/10 22:35:07;;;;;;;6.20;2.05;;;;;;;12.71;100.00;98728.41;15275400;19;20044;-75
2022/10/10 22:40:39;;;;;;;4.95;1.95;;;;;;;12.74;100.00;98728.09;15270018;19;20019;-75
2022/10/10 22:46:04;;;;;;;4.90;1.60;;;;;;;12.79;100.00;98731.97;15269331;19;20022;-75
2022/10/10 22:51:31;;;;;;;6.97;1.98;;;;;;;12.92;100.00;98742.28;15274886;19;20022;-75
2022/10/10 22:56:56;;;;;;;4.93;1.70;;;;;;;12.94;100.00;98755.63;15285308;19;20035;-75
2022/10/10 23:02:20;;;;;;;5.68;1.92;;;;;;;12.89;100.00;98763.41;15280947;19;20006;-76
2022/10/10 23:07:47;;;;;;;5.63;2.17;;;;;;;12.80;100.00;98770.66;15285379;19;20018;-76
2022/10/10 23:13:13;;;;;;;5.60;2.05;;;;;;;12.72;100.00;98773.38;15286620;19;20019;-76
2022/10/10 23:18:38;;;;;;;4.97;1.98;;;;;;;12.65;100.00;98792.09;15279681;19;20025;-76
2022/10/10 23:24:05;;;;;;;7.20;2.60;;;;;;;12.66;100.00;98796.50;15277614;19;20368;-76
2022/10/10 23:29:30;;;;;;;6.78;2.30;;;;;;;12.62;100.00;98801.41;15285624;19;20002;-77
2022/10/10 23:34:54;;;;;;;8.38;2.10;;;;;;;12.64;100.00;98817.44;15280708;19;20010;-76
2022/10/10 23:40:28;;;;;;;9.90;2.38;;;;;;;12.68;100.00;98815.25;15279177;19;20022;-76
2022/10/10 23:45:53;;;;;;;7.03;2.13;;;;;;;12.73;100.00;98834.53;15280064;19;20033;-75
2022/10/10 23:51:17;;;;;;;6.35;2.08;;;;;;;12.76;100.00;98837.75;15278577;19;20007;-75
2022/10/10 23:56:45;;;;;;;5.88;2.22;;;;;;;12.84;100.00;98847.75;15276406;19;20014;-76
